createdAt,value
2019-01-28T00:01:38.695Z,14.50
2019-01-28T00:04:08.707Z,14.20
2019-01-28T00:06:38.340Z,13.60
2019-01-28T00:09:07.687Z,13.03
2019-01-28T00:11:37.309Z,14.00
2019-01-28T00:14:10.897Z,14.30
2019-01-28T00:16:40.977Z,14.40
2019-01-28T00:19:10.600Z,14.50
2019-01-28T00:21:42.630Z,13.57
2019-01-28T00:24:12.539Z,14.53
2019-01-28T00:26:43.535Z,14.17
2019-01-28T00:29:14.964Z,13.03
2019-01-28T00:31:44.658Z,14.73
2019-01-28T00:34:14.157Z,14.47
2019-01-28T00:36:44.659Z,13.43
2019-01-28T00:39:13.969Z,12.70
2019-01-28T00:41:43.458Z,12.83
2019-01-28T00:44:13.411Z,13.00
2019-01-28T00:46:43.427Z,11.93
2019-01-28T00:49:12.561Z,12.03
2019-01-28T00:51:42.159Z,12.67
2019-01-28T00:54:12.117Z,12.43
2019-01-28T00:56:41.610Z,12.37
2019-01-28T00:59:13.106Z,11.43
2019-01-28T01:01:43.089Z,11.13
2019-01-28T01:04:13.060Z,10.50
2019-01-28T01:06:43.443Z,9.93
2019-01-28T01:09:12.534Z,11.27
2019-01-28T01:11:45.075Z,10.93
2019-01-28T01:14:15.981Z,10.17
2019-01-28T01:16:45.775Z,10.23
2019-01-28T01:19:15.141Z,8.83
2019-01-28T01:21:46.124Z,9.33
2019-01-28T01:24:17.404Z,8.73
2019-01-28T01:26:51.197Z,8.53
2019-01-28T01:29:21.291Z,9.00
2019-01-28T01:31:51.199Z,8.87
2019-01-28T01:34:21.385Z,8.47
2019-01-28T01:36:52.511Z,9.30
2019-01-28T01:39:22.598Z,7.83
2019-01-28T01:41:55.083Z,9.33
2019-01-28T01:44:24.371Z,9.03
2019-01-28T01:46:53.983Z,10.00
2019-01-28T01:49:25.334Z,9.00
2019-01-28T01:51:54.766Z,7.47
2019-01-28T01:54:24.357Z,9.77
2019-01-28T01:56:55.452Z,8.53
2019-01-28T01:59:26.000Z,8.73
2019-01-28T02:01:55.717Z,9.03
2019-01-28T02:04:25.678Z,9.20
2019-01-28T02:06:55.418Z,9.07
2019-01-28T02:09:31.757Z,8.80
2019-01-28T02:12:02.314Z,7.83
2019-01-28T02:14:32.004Z,10.40
2019-01-28T02:17:01.581Z,8.97
2019-01-28T02:19:32.879Z,8.40
2019-01-28T02:22:02.393Z,8.50
2019-01-28T02:24:31.930Z,7.73
2019-01-28T02:27:01.820Z,8.40
2019-01-28T02:29:31.929Z,8.03
2019-01-28T02:32:01.240Z,8.47
2019-01-28T02:34:31.661Z,7.80
2019-01-28T02:37:02.649Z,8.90
2019-01-28T02:39:32.522Z,8.17
2019-01-28T02:42:02.134Z,8.53
2019-01-28T02:44:32.272Z,9.00
2019-01-28T02:47:03.865Z,8.57
2019-01-28T02:49:34.325Z,8.97
2019-01-28T02:52:03.880Z,8.37
2019-01-28T02:54:33.564Z,8.80
2019-01-28T02:57:02.880Z,9.10
2019-01-28T02:59:32.803Z,8.40
2019-01-28T03:02:56.808Z,7.87
2019-01-28T03:05:57.271Z,8.77
2019-01-28T03:08:43.955Z,8.50
2019-01-28T03:11:30.770Z,8.90
2019-01-28T03:14:18.189Z,8.10
2019-01-28T03:17:08.403Z,7.30
2019-01-28T03:19:55.091Z,8.43
2019-01-28T03:22:41.893Z,8.23
2019-01-28T03:25:28.781Z,6.67
2019-01-28T03:28:15.446Z,6.73
2019-01-28T03:30:44.627Z,6.80
2019-01-28T03:33:13.074Z,7.37
2019-01-28T03:35:41.128Z,7.43
2019-01-28T03:38:10.162Z,7.70
2019-01-28T03:40:38.916Z,6.50
2019-01-28T03:43:08.499Z,5.73
2019-01-28T03:45:36.946Z,5.30
2019-01-28T03:48:05.292Z,4.80
2019-01-28T03:50:34.378Z,5.40
2019-01-28T03:53:02.913Z,5.17
2019-01-28T03:55:31.723Z,4.90
2019-01-28T03:58:00.181Z,5.03
2019-01-28T04:03:32.357Z,4.97
2019-01-28T04:06:18.772Z,4.93
2019-01-28T04:09:08.178Z,5.13
2019-01-28T04:11:54.918Z,4.63
2019-01-28T04:14:41.406Z,5.00
2019-01-28T04:17:27.741Z,4.93
2019-01-28T04:20:15.524Z,5.63
2019-01-28T04:23:01.873Z,5.90
2019-01-28T04:25:48.192Z,6.23
2019-01-28T04:28:35.301Z,5.77
2019-01-28T04:31:03.839Z,5.87
2019-01-28T04:33:32.756Z,6.27
2019-01-28T04:36:01.117Z,7.20
2019-01-28T04:38:29.780Z,6.50
2019-01-28T04:40:58.604Z,6.40
2019-01-28T04:43:27.733Z,5.47
2019-01-28T04:45:56.213Z,6.70
2019-01-28T04:48:24.590Z,6.37
2019-01-28T04:50:53.180Z,6.47
2019-01-28T04:53:21.754Z,6.37
2019-01-28T04:55:50.118Z,6.50
2019-01-28T04:58:18.415Z,6.30
2019-01-28T05:00:46.712Z,6.20
2019-01-28T05:03:15.698Z,6.37
2019-01-28T05:05:44.227Z,7.00
2019-01-28T05:08:13.002Z,7.37
2019-01-28T05:10:41.364Z,6.90
2019-01-28T05:13:09.597Z,7.67
2019-01-28T05:15:39.184Z,7.13
2019-01-28T05:18:07.759Z,7.43
2019-01-28T05:20:36.072Z,7.43
2019-01-28T05:23:04.791Z,7.90
2019-01-28T05:25:33.921Z,7.53
2019-01-28T05:28:04.220Z,7.70
2019-01-28T05:30:33.204Z,9.57
2019-01-28T05:33:01.937Z,12.60
2019-01-28T05:35:30.139Z,12.53
2019-01-28T05:37:58.709Z,10.27
2019-01-28T05:40:26.998Z,9.00
2019-01-28T05:42:55.274Z,9.90
2019-01-28T05:45:24.259Z,9.83
2019-01-28T05:47:52.828Z,11.17
2019-01-28T05:50:21.122Z,9.23
2019-01-28T05:52:49.390Z,9.53
2019-01-28T05:55:21.931Z,10.03
2019-01-28T05:57:50.500Z,11.43
2019-01-28T06:00:22.950Z,8.97
2019-01-28T06:02:51.656Z,10.97
2019-01-28T06:05:20.361Z,11.53
2019-01-28T06:07:48.773Z,11.40
2019-01-28T06:10:17.096Z,12.83
2019-01-28T06:12:45.540Z,11.00
2019-01-28T06:15:15.345Z,13.60
2019-01-28T06:17:44.338Z,16.33
2019-01-28T06:20:18.378Z,12.00
2019-01-28T06:22:50.836Z,12.73
2019-01-28T06:25:19.896Z,17.37
2019-01-28T06:27:48.984Z,15.27
2019-01-28T06:30:22.997Z,12.37
2019-01-28T06:32:52.316Z,14.33
2019-01-28T06:35:21.278Z,14.43
2019-01-28T06:37:51.822Z,15.87
2019-01-28T06:40:25.163Z,22.10
2019-01-28T06:42:53.534Z,14.23
2019-01-28T06:45:22.308Z,13.57
2019-01-28T06:47:50.548Z,15.10
2019-01-28T06:50:19.553Z,14.27
2019-01-28T06:52:47.885Z,14.90
2019-01-28T06:55:17.002Z,16.90
2019-01-28T06:57:45.490Z,17.53
2019-01-28T07:00:19.785Z,23.37
2019-01-28T07:02:48.103Z,21.13
2019-01-28T07:05:16.381Z,18.47
2019-01-28T07:07:44.669Z,20.20
2019-01-28T07:10:14.456Z,21.57
2019-01-28T07:12:43.578Z,23.60
2019-01-28T07:15:13.605Z,23.33
2019-01-28T07:17:42.058Z,23.40
2019-01-28T07:20:13.729Z,22.73
2019-01-28T07:22:42.730Z,23.70
2019-01-28T07:25:11.063Z,22.50
2019-01-28T07:27:39.319Z,23.07
2019-01-28T07:30:10.044Z,22.20
2019-01-28T07:32:38.288Z,22.33
2019-01-28T07:35:07.114Z,21.53
2019-01-28T07:37:35.878Z,20.63
2019-01-28T07:40:04.917Z,21.23
2019-01-28T07:42:33.097Z,23.73
2019-01-28T07:45:01.749Z,20.03
2019-01-28T07:47:30.446Z,22.10
2019-01-28T07:49:58.970Z,23.13
2019-01-28T07:52:27.057Z,21.00
2019-01-28T07:54:55.756Z,21.27
2019-01-28T07:57:23.987Z,18.37
2019-01-28T07:59:52.399Z,20.10
2019-01-28T08:02:21.272Z,18.47
2019-01-28T08:05:07.457Z,19.13
2019-01-28T08:07:35.559Z,21.90
2019-01-28T08:10:05.971Z,21.77
2019-01-28T08:12:34.828Z,22.53
2019-01-28T08:15:05.216Z,21.93
2019-01-28T08:17:33.519Z,22.13
2019-01-28T08:20:01.929Z,24.13
2019-01-28T08:22:30.378Z,23.20
2019-01-28T08:24:58.717Z,23.47
2019-01-28T08:27:27.573Z,24.47
2019-01-28T08:29:55.798Z,26.80
2019-01-28T08:32:24.677Z,25.97
2019-01-28T08:34:53.023Z,27.97
2019-01-28T08:37:21.554Z,26.83
2019-01-28T08:39:49.796Z,26.83
2019-01-28T08:42:19.061Z,29.63
2019-01-28T08:44:47.665Z,27.17
2019-01-28T08:47:15.905Z,25.37
2019-01-28T08:49:44.206Z,27.27
2019-01-28T08:52:13.100Z,25.67
2019-01-28T08:54:41.593Z,26.73
2019-01-28T08:57:10.708Z,26.73
2019-01-28T08:59:41.337Z,26.37
2019-01-28T09:02:10.235Z,26.87
2019-01-28T09:04:38.611Z,26.17
2019-01-28T09:07:09.048Z,25.30
2019-01-28T09:09:40.214Z,26.13
2019-01-28T09:12:10.336Z,24.50
2019-01-28T09:14:38.819Z,27.27
2019-01-28T09:17:08.783Z,25.70
2019-01-28T09:19:37.289Z,26.97
2019-01-28T09:22:05.827Z,27.43
2019-01-28T09:24:34.541Z,25.23
2019-01-28T09:27:03.153Z,27.43
2019-01-28T09:29:34.036Z,26.83
2019-01-28T09:32:03.177Z,25.23
2019-01-28T09:34:31.546Z,26.80
2019-01-28T09:36:59.993Z,24.40
2019-01-28T09:39:29.637Z,25.90
2019-01-28T09:41:58.376Z,29.27
2019-01-28T09:44:27.271Z,29.43
2019-01-28T09:46:55.518Z,25.20
2019-01-28T09:49:24.127Z,18.93
2019-01-28T09:51:52.620Z,17.87
2019-01-28T09:54:22.804Z,22.33
2019-01-28T09:56:51.661Z,14.47
2019-01-28T09:59:20.203Z,13.93
2019-01-28T10:01:48.414Z,12.83
2019-01-28T10:04:16.594Z,12.27
2019-01-28T10:06:45.349Z,11.90
2019-01-28T10:09:14.471Z,12.57
2019-01-28T10:11:43.421Z,10.73
2019-01-28T10:14:11.759Z,12.37
2019-01-28T10:16:40.923Z,13.60
2019-01-28T10:19:09.391Z,13.47
2019-01-28T10:21:45.664Z,14.73
2019-01-28T10:24:26.070Z,15.87
2019-01-28T10:26:55.339Z,15.43
2019-01-28T10:29:23.866Z,17.37
2019-01-28T10:31:52.002Z,14.50
2019-01-28T10:34:20.488Z,18.07
2019-01-28T10:36:48.737Z,17.07
2019-01-28T10:39:16.832Z,17.90
2019-01-28T10:41:45.101Z,15.87
2019-01-28T10:44:13.576Z,16.60
2019-01-28T10:46:41.663Z,15.30
2019-01-28T10:49:11.762Z,16.83
2019-01-28T10:51:40.395Z,16.47
2019-01-28T10:54:09.128Z,15.70
2019-01-28T10:56:38.544Z,15.70
2019-01-28T10:59:06.793Z,17.70
2019-01-28T11:01:35.317Z,13.07
2019-01-28T11:04:03.689Z,15.83
2019-01-28T11:06:32.547Z,15.77
2019-01-28T11:09:01.300Z,13.77
2019-01-28T11:11:29.702Z,13.60
2019-01-28T11:13:57.900Z,13.77
2019-01-28T11:16:26.127Z,14.07
2019-01-28T11:18:58.733Z,13.60
2019-01-28T11:21:27.207Z,12.90
2019-01-28T11:23:56.215Z,12.63
2019-01-28T11:26:25.129Z,13.77
2019-01-28T11:28:53.427Z,13.10
2019-01-28T11:31:21.939Z,15.07
2019-01-28T11:33:55.329Z,13.37
2019-01-28T11:36:26.931Z,14.97
2019-01-28T11:38:55.601Z,13.60
2019-01-28T11:41:24.347Z,13.43
2019-01-28T11:43:53.054Z,13.67
2019-01-28T11:46:21.279Z,14.53
2019-01-28T11:48:50.301Z,13.00
2019-01-28T11:51:18.544Z,12.43
2019-01-28T11:53:47.613Z,13.77
2019-01-28T11:56:16.399Z,14.40
2019-01-28T11:58:45.414Z,12.97
2019-01-28T12:01:24.440Z,14.60
2019-01-28T12:03:52.767Z,13.87
2019-01-28T12:06:21.025Z,12.67
2019-01-28T12:08:49.472Z,10.90
2019-01-28T12:11:18.501Z,12.90
2019-01-28T12:13:47.097Z,12.70
2019-01-28T12:16:17.195Z,12.10
2019-01-28T12:18:47.073Z,11.27
2019-01-28T12:24:58.355Z,13.90
2019-01-28T12:27:46.301Z,12.30
2019-01-28T12:42:43.038Z,13.27
2019-01-28T12:48:59.184Z,12.93
2019-01-28T12:51:46.689Z,13.53
2019-01-28T12:54:34.425Z,12.43
2019-01-28T13:03:27.027Z,11.73
2019-01-28T13:09:04.675Z,13.33
2019-01-28T13:11:53.799Z,12.30
2019-01-28T13:21:20.812Z,7.27
2019-01-28T13:24:07.889Z,6.20
2019-01-28T13:26:55.524Z,3.83
2019-01-28T13:39:13.157Z,3.30
2019-01-28T13:42:00.297Z,3.43
2019-01-28T13:50:59.042Z,1.07
2019-01-28T13:53:57.082Z,1.33
2019-01-28T13:56:45.456Z,1.40
2019-01-28T13:59:32.509Z,1.87
2019-01-28T14:05:03.741Z,2.00
2019-01-28T14:07:52.952Z,1.97
2019-01-28T14:10:50.833Z,1.53
2019-01-28T14:13:37.256Z,2.17
2019-01-28T14:22:31.879Z,2.53
2019-01-28T14:25:22.150Z,2.63
2019-01-28T14:28:11.011Z,2.40
2019-01-28T14:34:39.797Z,2.57
2019-01-28T14:40:31.000Z,2.67
2019-01-28T14:43:22.318Z,2.33
2019-01-28T14:46:11.453Z,2.50
2019-01-28T14:52:55.404Z,2.50
2019-01-28T14:58:47.078Z,2.00
2019-01-28T15:01:34.626Z,1.93
2019-01-28T15:04:09.679Z,2.70
2019-01-28T15:06:38.253Z,2.87
2019-01-28T15:09:11.221Z,2.63
2019-01-28T15:11:42.325Z,2.70
2019-01-28T15:14:11.470Z,3.00
2019-01-28T15:16:42.424Z,3.13
2019-01-28T15:19:17.595Z,2.90
2019-01-28T15:21:48.922Z,3.00
2019-01-28T15:24:18.337Z,3.23
2019-01-28T15:26:47.677Z,3.23
2019-01-28T15:29:18.840Z,2.53
2019-01-28T15:31:48.421Z,3.43
2019-01-28T15:34:21.105Z,2.63
2019-01-28T15:36:53.112Z,2.70
2019-01-28T15:39:28.035Z,3.50
2019-01-28T15:41:57.206Z,3.50
2019-01-28T15:44:28.013Z,4.00
2019-01-28T15:46:57.059Z,3.70
2019-01-28T15:49:29.384Z,3.47
2019-01-28T15:52:00.483Z,3.70
2019-01-28T15:54:30.787Z,5.03
2019-01-28T15:57:03.060Z,3.60
2019-01-28T15:59:35.259Z,3.67
2019-01-28T16:02:06.213Z,4.20
2019-01-28T16:10:43.954Z,3.50
2019-01-28T16:13:30.846Z,2.90
2019-01-28T16:16:18.167Z,3.47
2019-01-28T16:21:53.859Z,3.60
2019-01-28T16:24:40.220Z,3.67
2019-01-28T16:27:28.239Z,3.33
2019-01-28T16:30:18.170Z,4.20
2019-01-28T16:36:02.561Z,4.40
2019-01-28T16:38:48.693Z,4.50
2019-01-28T16:41:35.681Z,3.53
2019-01-28T16:44:22.421Z,4.10
2019-01-28T16:50:09.767Z,3.73
2019-01-28T16:52:57.677Z,4.37
2019-01-28T16:56:43.780Z,4.30
2019-01-28T16:59:40.849Z,3.97
2019-01-28T17:02:10.399Z,5.10
2019-01-28T17:04:38.562Z,5.73
2019-01-28T17:07:07.262Z,4.83
2019-01-28T17:09:36.483Z,6.17
2019-01-28T17:12:08.116Z,6.43
2019-01-28T17:14:36.487Z,5.93
2019-01-28T17:17:05.037Z,5.07
2019-01-28T17:19:33.340Z,5.03
2019-01-28T17:22:01.437Z,5.80
2019-01-28T17:24:30.993Z,6.00
2019-01-28T17:26:59.085Z,6.83
2019-01-28T17:29:28.689Z,6.83
2019-01-28T17:31:57.036Z,6.97
2019-01-28T17:34:25.639Z,7.10
2019-01-28T17:36:54.561Z,6.70
2019-01-28T17:39:25.534Z,7.03
2019-01-28T17:41:55.669Z,7.60
2019-01-28T17:44:24.565Z,8.37
2019-01-28T17:46:53.362Z,6.90
2019-01-28T17:49:22.293Z,7.63
2019-01-28T17:51:50.358Z,7.53
2019-01-28T17:54:19.033Z,8.93
2019-01-28T17:56:48.060Z,7.33
2019-01-28T17:59:16.390Z,8.20
2019-01-28T18:01:45.463Z,9.70
2019-01-28T18:04:25.871Z,8.50
2019-01-28T18:06:54.878Z,9.90
2019-01-28T18:09:23.331Z,7.57
2019-01-28T18:11:52.232Z,8.73
2019-01-28T18:14:21.225Z,7.63
2019-01-28T18:16:50.010Z,9.30
2019-01-28T18:19:19.505Z,9.07
2019-01-28T18:21:48.042Z,10.73
2019-01-28T18:24:16.286Z,7.40
2019-01-28T18:26:44.824Z,9.27
2019-01-28T18:29:13.406Z,9.27
2019-01-28T18:31:42.023Z,7.90
2019-01-28T18:34:10.114Z,9.97
2019-01-28T18:36:40.038Z,11.00
2019-01-28T18:39:12.286Z,10.20
2019-01-28T18:41:42.956Z,7.73
2019-01-28T18:44:12.863Z,8.00
2019-01-28T18:46:41.222Z,7.87
2019-01-28T18:49:09.243Z,7.70
2019-01-28T18:51:41.968Z,7.53
2019-01-28T18:54:11.360Z,7.23
2019-01-28T18:56:39.842Z,6.23
2019-01-28T18:59:09.678Z,7.17
2019-01-28T19:01:40.695Z,8.80
2019-01-28T19:04:13.479Z,9.10
2019-01-28T19:07:10.937Z,9.93
2019-01-28T19:10:01.231Z,9.53
2019-01-28T19:12:41.895Z,7.20
2019-01-28T19:15:23.588Z,8.33
2019-01-28T19:18:14.290Z,7.37
2019-01-28T19:21:08.194Z,7.37
2019-01-28T19:23:35.380Z,7.47
2019-01-28T19:26:04.882Z,6.83
2019-01-28T19:28:33.497Z,6.37
2019-01-28T19:31:02.153Z,8.63
2019-01-28T19:33:30.725Z,7.30
2019-01-28T19:35:59.460Z,6.93
2019-01-28T19:38:28.154Z,7.23
2019-01-28T19:40:56.490Z,6.50
2019-01-28T19:43:26.536Z,6.43
2019-01-28T19:45:55.359Z,6.47
2019-01-28T19:48:23.595Z,6.83
2019-01-28T19:50:54.076Z,8.97
2019-01-28T19:53:22.497Z,12.97
2019-01-28T19:55:50.852Z,17.30
2019-01-28T19:58:19.555Z,13.60
2019-01-28T20:00:49.271Z,20.23
2019-01-28T20:03:17.675Z,9.60
2019-01-28T20:05:45.793Z,12.13
2019-01-28T20:08:15.124Z,8.00
2019-01-28T20:10:43.327Z,9.57
2019-01-28T20:13:11.837Z,9.00
2019-01-28T20:15:40.578Z,8.80
2019-01-28T20:18:09.975Z,10.73
2019-01-28T20:20:39.758Z,12.33
2019-01-28T20:23:07.890Z,13.40
2019-01-28T20:25:37.094Z,10.40
2019-01-28T20:28:05.820Z,9.23
2019-01-28T20:30:34.337Z,8.33
2019-01-28T20:33:02.724Z,9.03
2019-01-28T20:35:30.758Z,8.17
2019-01-28T20:38:15.577Z,7.97
2019-01-28T20:40:49.970Z,7.33
2019-01-28T20:43:24.175Z,9.00
2019-01-28T20:45:53.079Z,8.77
2019-01-28T20:48:21.933Z,9.93
2019-01-28T20:50:50.691Z,8.97
2019-01-28T20:53:19.847Z,8.13
2019-01-28T20:55:49.199Z,7.70
2019-01-28T20:58:19.347Z,7.07
2019-01-28T21:00:50.775Z,6.13
2019-01-28T21:03:24.823Z,5.83
2019-01-28T21:05:53.625Z,5.30
2019-01-28T21:08:23.690Z,5.27
2019-01-28T21:10:51.982Z,5.53
2019-01-28T21:13:21.154Z,6.23
2019-01-28T21:15:50.377Z,7.03
2019-01-28T21:18:18.680Z,5.30
2019-01-28T21:20:46.938Z,5.80
2019-01-28T21:23:15.525Z,5.43
2019-01-28T21:25:44.206Z,6.33
2019-01-28T21:28:12.389Z,6.67
2019-01-28T21:30:40.541Z,6.63
2019-01-28T21:33:09.012Z,7.77
2019-01-28T21:35:57.200Z,7.20
2019-01-28T21:38:30.287Z,7.27
2019-01-28T21:40:58.972Z,6.10
2019-01-28T21:43:29.347Z,7.60
2019-01-28T21:45:58.783Z,7.37
2019-01-28T21:48:27.679Z,7.07
2019-01-28T21:50:56.143Z,6.07
2019-01-28T21:53:25.490Z,6.53
2019-01-28T21:55:53.536Z,5.70
2019-01-28T21:58:22.592Z,5.43
2019-01-28T22:00:51.003Z,5.67
2019-01-28T22:03:20.003Z,6.30
2019-01-28T22:05:48.795Z,5.97
2019-01-28T22:08:17.505Z,5.47
2019-01-28T22:10:47.090Z,6.50
2019-01-28T22:13:15.374Z,5.40
2019-01-28T22:15:44.448Z,5.70
2019-01-28T22:18:13.460Z,5.70
2019-01-28T22:20:42.826Z,6.00
2019-01-28T22:23:11.324Z,6.07
2019-01-28T22:25:39.553Z,6.23
2019-01-28T22:28:08.020Z,5.90
2019-01-28T22:30:37.224Z,5.93
2019-01-28T22:33:08.932Z,6.10
2019-01-28T22:35:36.138Z,6.77
2019-01-28T22:38:05.154Z,7.40
2019-01-28T22:40:33.634Z,6.93
2019-01-28T22:43:01.828Z,6.40
2019-01-28T22:45:30.227Z,6.20
2019-01-28T22:48:00.655Z,6.43
2019-01-28T22:50:28.925Z,7.57
2019-01-28T22:52:57.398Z,7.67
2019-01-28T22:55:26.275Z,8.40
2019-01-28T22:57:54.408Z,7.07
2019-01-28T23:00:58.196Z,8.03
2019-01-28T23:03:28.405Z,7.90
2019-01-28T23:05:57.096Z,7.90
2019-01-28T23:08:28.622Z,7.73
2019-01-28T23:10:56.817Z,7.93
2019-01-28T23:13:25.513Z,8.27
2019-01-28T23:15:53.558Z,7.47
2019-01-28T23:18:22.423Z,7.57
2019-01-28T23:20:51.346Z,7.40
2019-01-28T23:23:19.839Z,7.13
2019-01-28T23:25:48.300Z,6.53
2019-01-28T23:28:16.798Z,7.07
2019-01-28T23:30:44.999Z,7.77
2019-01-28T23:33:13.106Z,7.17
2019-01-28T23:35:41.464Z,7.60
2019-01-28T23:38:10.505Z,7.43
2019-01-28T23:40:38.952Z,8.30
2019-01-28T23:43:07.481Z,8.80
2019-01-28T23:45:36.484Z,8.97
2019-01-28T23:48:05.636Z,8.50
2019-01-28T23:50:34.543Z,9.63
2019-01-28T23:53:02.737Z,9.37
2019-01-28T23:55:31.271Z,10.20
2019-01-28T23:57:59.686Z,9.80
